Bei Facebook empfehlenBei Twitter postenGoogle plusPinterest

Das Wetter im Erzgebirge am 25.02.2015

Wetter und Klima am 25.02.2015 Holzhau im Erzgebirge (630m ü.NN)
Letzte gemessene Temperatur und Uhrzeit der Messung23:45:00 Uhr-3.90 °C
Temperatur (Maximum / Höchstwert) und Uhrzeit der Messung15:30:00 Uhr7.00 °C
Temperatur (Minimum / Tiefstwert) und Uhrzeit der Messung23:45:00-3.90 °C
Errechneter Absolutwert der Temperaturschwankungen zwischen Tmin und Tmax des Tages10.90 K
Errechnete Tagesmitteltemperatur0.09896 °C
Gesamt - Niederschlag des Tages (in flüssiger Form)0.00 Liter / m²
Luftdruck (Maximum / Höchstwert) und Zeitpunkt der Messung23:00:00 Uhr1018.60 hPa
Luftdruck (Minimum / Tiefstwert) und Zeitpunkt der Messung00:15:00 Uhr1011.90 hPa
Errechneter Absolutwert der Luftdruckschwankungen des Tages6.70 hPa
Höchste gemessene Windgeschwindigkeit und Uhrzeit der Messung14:45:00 Uhr5.40 km/h
Errechnete Windhäufigkeit in Relation zu den Messwerten des Tages1.04167 %
Niedrigste Windkühle (Windchill) und Zeitpunkt der Messung23:45:00 Uhr-3.90 °C
Taupunkt (Maximum / Höchstwert) und Uhrzeit der Messung11:00:00 Uhr1.70 °C
Taupunkt (Minimum / Tiefstwert) und Uhrzeit der Messung23:45:00-5.60 °C
Anzahl der automatisch eingelesenen Messwerte 96

Detaillierte Wetter- und Klima- Messwerte für den 25.02.2015 in Holzhau im Erzgebirge (630m ü.NN)
ZeitTemperaturLuftdruckRel. LuftfeuchteWindWindrichtungWindchillTaupunktNiederschlag l/m²
23:45:00-3.90 °C1018.20 hPa89.00 %-5.60 °C 
23:30:00-3.70 °C1018.30 hPa89.00 %-5.40 °C 
23:15:00-3.70 °C1018.40 hPa89.00 %-5.40 °C 
23:00:00-3.60 °C1018.60 hPa89.00 %-5.30 °C 
22:45:00-3.50 °C1018.40 hPa89.00 %-5.20 °C 
22:30:00-3.20 °C1018.50 hPa89.00 %-4.90 °C 
22:15:00-2.80 °C1018.40 hPa89.00 %-4.50 °C 
22:00:00-2.60 °C1018.20 hPa89.00 %-4.30 °C 
21:45:00-2.70 °C1018.20 hPa89.00 %-4.40 °C 
21:30:00-2.90 °C1018.20 hPa89.00 %-4.60 °C 
21:15:00-3.20 °C1018.00 hPa88.00 %-5.10 °C 
21:00:00-3.10 °C1018.00 hPa88.00 %-5.00 °C 
20:45:00-3.10 °C1017.80 hPa88.00 %-5.00 °C 
20:30:00-3.10 °C1017.60 hPa87.00 %-5.20 °C 
20:15:00-2.80 °C1017.30 hPa86.00 %-5.10 °C 
20:00:00-2.60 °C1017.30 hPa86.00 %-4.90 °C 
19:45:00-2.30 °C1017.20 hPa86.00 %-4.60 °C 
19:30:00-2.10 °C1016.90 hPa86.00 %-4.40 °C 
19:15:00-2.20 °C1017.10 hPa85.00 %-4.60 °C 
19:00:00-2.00 °C1017.00 hPa83.00 %-4.80 °C 
18:45:00-1.70 °C1016.80 hPa82.00 %-4.70 °C 
18:30:00-1.50 °C1017.00 hPa80.00 %-4.80 °C 
18:15:00-0.70 °C1016.90 hPa79.00 %-4.30 °C 
18:00:000.10 °C1016.80 hPa78.00 %-3.30 °C 
17:45:000.90 °C1016.70 hPa76.00 %-2.80 °C 
17:30:001.70 °C1016.40 hPa75.00 %-2.20 °C 
17:15:002.30 °C1016.50 hPa72.00 %-2.20 °C 
17:00:003.30 °C1016.30 hPa70.00 %-1.60 °C 
16:45:004.10 °C1016.10 hPa68.00 %-1.30 °C 
16:30:004.70 °C1016.00 hPa65.00 %-1.30 °C 
16:15:005.90 °C1016.10 hPa62.00 %-0.80 °C 
16:00:006.90 °C1016.10 hPa61.00 %-0.10 °C 
15:45:006.90 °C1016.00 hPa61.00 %-0.10 °C 
15:30:007.00 °C1015.80 hPa61.00 %0.00 °C 
15:15:007.00 °C1015.80 hPa63.00 %0.50 °C 
15:00:006.60 °C1015.90 hPa64.00 %0.30 °C 
14:45:006.60 °C1015.80 hPa65.00 %5.40 km/hWSW5.80 °C0.50 °C 
14:30:006.20 °C1015.70 hPa67.00 %0.50 °C 
14:15:005.90 °C1015.70 hPa67.00 %0.30 °C 
14:00:005.90 °C1015.70 hPa67.00 %0.30 °C 
13:45:005.80 °C1015.50 hPa68.00 %0.40 °C 
13:30:005.80 °C1015.50 hPa69.00 %0.60 °C 
13:15:005.40 °C1015.30 hPa70.00 %0.40 °C 
13:00:005.30 °C1015.50 hPa70.00 %0.30 °C 
12:45:005.30 °C1015.20 hPa69.00 %0.10 °C 
12:30:005.60 °C1015.20 hPa71.00 %0.80 °C 
12:15:005.30 °C1015.30 hPa71.00 %0.50 °C 
12:00:005.30 °C1015.60 hPa71.00 %0.50 °C 
11:45:005.60 °C1015.40 hPa70.00 %0.60 °C 
11:30:005.90 °C1015.30 hPa72.00 %1.20 °C 
11:15:005.60 °C1015.30 hPa73.00 %1.20 °C 
11:00:005.60 °C1015.20 hPa76.00 %1.70 °C 
10:45:004.70 °C1015.00 hPa80.00 %1.60 °C 
10:30:003.90 °C1014.90 hPa84.00 %1.40 °C 
10:15:003.10 °C1014.90 hPa86.00 %1.00 °C 
10:00:002.40 °C1015.00 hPa88.00 %0.60 °C 
09:45:002.10 °C1014.90 hPa90.00 %0.60 °C 
09:30:001.80 °C1014.70 hPa92.00 %0.60 °C 
09:15:001.10 °C1014.60 hPa92.00 %-0.10 °C 
09:00:000.40 °C1014.60 hPa93.00 %-0.60 °C 
08:45:00-0.20 °C1014.50 hPa92.00 %-1.50 °C 
08:30:00-1.00 °C1014.40 hPa92.00 %-2.30 °C 
08:15:00-1.70 °C1014.20 hPa92.00 %-3.00 °C 
08:00:00-2.20 °C1014.20 hPa92.00 %-3.50 °C 
07:45:00-2.60 °C1014.00 hPa92.00 %-3.90 °C 
07:30:00-2.80 °C1014.10 hPa92.00 %-4.00 °C 
07:15:00-3.10 °C1013.70 hPa91.00 %-4.50 °C 
07:00:00-3.10 °C1013.40 hPa91.00 %-4.50 °C 
06:45:00-3.20 °C1013.30 hPa91.00 %-4.60 °C 
06:30:00-3.10 °C1013.10 hPa91.00 %-4.50 °C 
06:15:00-3.30 °C1013.00 hPa91.00 %-4.70 °C 
06:00:00-3.10 °C1012.90 hPa90.00 %-4.70 °C 
05:45:00-2.90 °C1012.90 hPa90.00 %-4.50 °C 
05:30:00-2.70 °C1013.00 hPa91.00 %-4.10 °C 
05:15:00-2.50 °C1012.80 hPa91.00 %-3.90 °C 
05:00:00-2.50 °C1012.70 hPa91.00 %-3.90 °C 
04:45:00-2.70 °C1012.70 hPa91.00 %-4.10 °C 
04:30:00-3.00 °C1012.30 hPa90.00 %-4.60 °C 
04:15:00-3.10 °C1012.50 hPa90.00 %-4.70 °C 
04:00:00-2.80 °C1012.30 hPa90.00 %-4.40 °C 
03:45:00-2.70 °C1012.10 hPa90.00 %-4.30 °C 
03:30:00-2.60 °C1012.20 hPa90.00 %-4.20 °C 
03:15:00-2.60 °C1012.10 hPa90.00 %-4.20 °C 
03:00:00-2.50 °C1012.30 hPa90.00 %-4.10 °C 
02:45:00-2.40 °C1012.30 hPa90.00 %-4.00 °C 
02:30:00-2.20 °C1012.20 hPa90.00 %-3.80 °C 
02:15:00-2.10 °C1012.20 hPa91.00 %-3.50 °C 
02:00:00-2.20 °C1012.20 hPa90.00 %-3.80 °C 
01:45:00-2.50 °C1012.20 hPa90.00 %-4.10 °C 
01:30:00-3.00 °C1012.20 hPa90.00 %-4.60 °C 
01:15:00-3.40 °C1012.00 hPa89.00 %-5.10 °C 
01:00:00-3.50 °C1012.00 hPa88.00 %-5.40 °C 
00:45:00-3.20 °C1012.00 hPa88.00 %-5.10 °C 
00:30:00-3.10 °C1012.10 hPa88.00 %-5.00 °C 
00:15:00-2.90 °C1011.90 hPa88.00 %-4.80 °C 
00:00:00-3.00 °C1012.00 hPa87.00 %-5.10 °C 

Permanenter Link zu dieser Seite: Wetter im Erzgebirge am 25.02.2015
Performance-Info: Die Erstellung der Seite / Statistik(en) / Tabelle(n) erforderte 5 Datenbankserver-Abfrage(n) und dauerte 100 Millisekunden. (Dieser Messwert ist von der Gesamt-Auslastung des Servers abhängig.)
Erzgebirge - Wetter | Erzgebirge - Wetter (Mobilgeräte) | Komplette Klimadatenbank